WS Maaseik 1 Meer informatie WS Maaseik 1


WS Maaseik 2 Meer informatie WS Maaseik 2


Regen radar Meer informatie rain snow radar


Bezoek onze andere website:

Vorige versie
weerstation Maaseik


Bezoek ook eens deze sites:

Weerstation Geleen



Het weer levert geen direct gevaar op.    Er zijn geen waarschuwingen afgegeven.

METAR rapporten vliegvelden

   
EBBR - Brussels International Airport, Belgium
Afstand tot: W 14 km
Gewijzigd: 28-10-2021 13:20
Helder  
Helder  
   Wind: Zuiden 18.5 km/h
Wind: Zuiden 18.5 km/h
Temperatuur: 15°C
Dauwpunt: 10°C
Vochtigheid: 72%
Barometer: 1015 hPa
Zicht: meer dan 10 km
Bewolking: Helder ft
EBBR 281120Z 18010KT CAVOK 15/10 Q1015 NOSIG
EBBE - Beauvechain (Bevekom), Belgium
Afstand tot: ZZO 17 km
Gewijzigd: 28-10-2021 13:25
Licht bewolkt  
Licht bewolkt  
   Wind: Zuiden 20.4 km/h
Wind: Zuiden 20.4 km/h
Temperatuur: 14°C
Dauwpunt: 9°C
Vochtigheid: 72%
Barometer: 1015 hPa
Bewolking: Few Clouds
Zicht: meer dan 10 km
Bewolking: Licht bewolkt 25000 ft
EBBE 281125Z 18011KT 9999 FEW250 14/09 Q1015 BLU BLU
EBDT - Schaffen, Belgium
Afstand tot: ONO 29 km
Gewijzigd: 28-10-2021 13:25
Licht bewolkt  
Licht bewolkt  
   Wind: Zuiden 22.2 km/h
Wind: Zuiden 22.2 km/h
Temperatuur: 15°C
Dauwpunt: 9°C
Vochtigheid: 68%
Barometer: 1015 hPa
Bewolking: Few Clouds
Zicht: meer dan 10 km
Bewolking: Licht bewolkt 20000 ft
EBDT 281125Z 19012KT 9999 FEW200 15/09 Q1015 BLU BLU
EBAW - Antwerp/Deurne, Belgium
Afstand tot: NNW 38 km
Gewijzigd: 28-10-2021 13:20
Helder  
Helder  
   Wind: ZZO 20.4 km/h
Wind: ZZO 20.4 km/h
Temperatuur: 15°C
Dauwpunt: 9°C
Vochtigheid: 68%
Barometer: 1015 hPa
Zicht: meer dan 10 km
Bewolking: Helder ft
EBAW 281120Z 15011KT CAVOK 15/09 Q1015 NOSIG
EBCI - Charleroi/Gosselies, Belgium
Afstand tot: ZZW 51 km
Gewijzigd: 28-10-2021 13:20
Helder  
Helder  
   Wind: Zuiden 18.5 km/h
Wind: Zuiden 18.5 km/h
Temperatuur: 13°C
Dauwpunt: 8°C
Vochtigheid: 72%
Barometer: 1016 hPa
Zicht: meer dan 10 km
Bewolking: Helder ft
EBCI 281120Z 17010KT CAVOK 13/08 Q1016 NOSIG
EBLG - Bierset/Liege, Belgium
Afstand tot: OZO 60 km
Gewijzigd: 28-10-2021 13:20
Helder  
Helder  
   Wind: Zuiden 20.4 km/h
Wind: Zuiden 20.4 km/h
Temperatuur: 14°C
Dauwpunt: 9°C
Vochtigheid: 72%
Barometer: 1016 hPa
Zicht: meer dan 10 km
Bewolking: Helder ft
EBLG 281120Z 19011KT CAVOK 14/09 Q1016 NOSIG

Script ontwikkeld door  Saratoga-weather.org Aangepast voor de template door  Weerstation Leuven

U vindt ons ook hier:

Het Weer Aktueel

Weather Underground

AWEKAS